South Mills, North Carolina
Current Conditions -  °F | °C
As of 10:55 AM on Friday 24 Oct 2014 (Local Time) from KCPK Reporting Station
Clear Clear  
Wind Chill: 64°   Ceiling: Unl
Heat Index: 64°   Visibility: 10mi
Dew Point: 48°   Wind: 9mph
Humidity: 56%   Direction: 300°WNW
Pressure: 29.99"   Gusts: 16mph
Location:  36.45°N, 76.33°W
Report Text: KCPK 241455Z AUTO 30008G14KT 10SM CLR 18/09 A2999 RMK AO2
Loading
Personal Weather Stations






























Interactive Weather Map
Tropical Storm Tracking
New forecast layout! Learn more

10-Day Weather Forecast

Advertisements
Track Severe Weather on mobile